sensor_id;sensor_type;location;lat;lon;timestamp;temperature;humidity
5061;DHT22;2549;52.128;21.068;2023-11-21T00:00:04;5.10;99.90
5061;DHT22;2549;52.128;21.068;2023-11-21T00:02:36;5.10;99.90
5061;DHT22;2549;52.128;21.068;2023-11-21T00:05:10;5.10;99.90
5061;DHT22;2549;52.128;21.068;2023-11-21T00:07:39;5.10;99.90
5061;DHT22;2549;52.128;21.068;2023-11-21T00:10:07;5.10;99.90
5061;DHT22;2549;52.128;21.068;2023-11-21T00:12:35;5.10;99.90
5061;DHT22;2549;52.128;21.068;2023-11-21T00:18:43;5.10;99.90
5061;DHT22;2549;52.128;21.068;2023-11-21T00:21:10;5.10;99.90
5061;DHT22;2549;52.128;21.068;2023-11-21T00:23:39;5.10;99.90
5061;DHT22;2549;52.128;21.068;2023-11-21T00:26:06;5.20;99.90
5061;DHT22;2549;52.128;21.068;2023-11-21T00:28:33;5.20;99.90
5061;DHT22;2549;52.128;21.068;2023-11-21T00:31:00;5.20;99.90
5061;DHT22;2549;52.128;21.068;2023-11-21T00:33:27;5.20;99.90
5061;DHT22;2549;52.128;21.068;2023-11-21T00:35:54;5.10;99.90
5061;DHT22;2549;52.128;21.068;2023-11-21T00:38:21;5.10;99.90
5061;DHT22;2549;52.128;21.068;2023-11-21T00:40:47;5.10;99.90
5061;DHT22;2549;52.128;21.068;2023-11-21T00:43:14;5.10;99.90
5061;DHT22;2549;52.128;21.068;2023-11-21T00:45:41;5.10;99.90
5061;DHT22;2549;52.128;21.068;2023-11-21T00:48:09;5.00;99.90
5061;DHT22;2549;52.128;21.068;2023-11-21T00:50:36;5.00;99.90
5061;DHT22;2549;52.128;21.068;2023-11-21T00:53:03;5.00;99.90
5061;DHT22;2549;52.128;21.068;2023-11-21T00:55:29;5.00;99.90
5061;DHT22;2549;52.128;21.068;2023-11-21T00:57:56;5.00;99.90
5061;DHT22;2549;52.128;21.068;2023-11-21T01:00:25;5.00;99.90
5061;DHT22;2549;52.128;21.068;2023-11-21T01:02:51;5.00;99.90
5061;DHT22;2549;52.128;21.068;2023-11-21T01:05:19;5.00;99.90
5061;DHT22;2549;52.128;21.068;2023-11-21T01:07:46;5.00;99.90
5061;DHT22;2549;52.128;21.068;2023-11-21T01:10:13;5.00;99.90
5061;DHT22;2549;52.128;21.068;2023-11-21T01:12:40;5.00;99.90
5061;DHT22;2549;52.128;21.068;2023-11-21T01:15:08;5.00;99.90
5061;DHT22;2549;52.128;21.068;2023-11-21T01:17:35;5.00;99.90
5061;DHT22;2549;52.128;21.068;2023-11-21T01:20:03;5.00;99.90
5061;DHT22;2549;52.128;21.068;2023-11-21T01:22:33;5.00;99.90
5061;DHT22;2549;52.128;21.068;2023-11-21T01:25:00;5.00;99.90
5061;DHT22;2549;52.128;21.068;2023-11-21T01:27:27;4.90;99.90
5061;DHT22;2549;52.128;21.068;2023-11-21T01:29:56;4.90;99.90
5061;DHT22;2549;52.128;21.068;2023-11-21T01:32:22;4.90;99.90
5061;DHT22;2549;52.128;21.068;2023-11-21T01:34:50;4.90;99.90
5061;DHT22;2549;52.128;21.068;2023-11-21T01:37:17;4.90;99.90
5061;DHT22;2549;52.128;21.068;2023-11-21T01:39:44;4.90;99.90
5061;DHT22;2549;52.128;21.068;2023-11-21T01:42:11;5.00;99.90
5061;DHT22;2549;52.128;21.068;2023-11-21T01:44:40;5.00;99.90
5061;DHT22;2549;52.128;21.068;2023-11-21T01:47:08;4.90;99.90
5061;DHT22;2549;52.128;21.068;2023-11-21T01:49:36;4.90;99.90
5061;DHT22;2549;52.128;21.068;2023-11-21T01:52:03;4.90;99.90
5061;DHT22;2549;52.128;21.068;2023-11-21T01:54:31;4.80;99.90
5061;DHT22;2549;52.128;21.068;2023-11-21T01:56:59;4.80;99.90
5061;DHT22;2549;52.128;21.068;2023-11-21T01:59:41;4.70;99.90
5061;DHT22;2549;52.128;21.068;2023-11-21T02:02:08;4.70;99.90
5061;DHT22;2549;52.128;21.068;2023-11-21T02:04:36;4.70;99.90
5061;DHT22;2549;52.128;21.068;2023-11-21T02:07:03;4.80;99.90
5061;DHT22;2549;52.128;21.068;2023-11-21T02:09:33;4.70;99.90
5061;DHT22;2549;52.128;21.068;2023-11-21T02:12:01;4.70;99.90
5061;DHT22;2549;52.128;21.068;2023-11-21T02:14:28;4.70;99.90
5061;DHT22;2549;52.128;21.068;2023-11-21T02:16:55;4.70;99.90
5061;DHT22;2549;52.128;21.068;2023-11-21T02:19:24;4.60;99.90
5061;DHT22;2549;52.128;21.068;2023-11-21T02:21:57;4.60;99.90
5061;DHT22;2549;52.128;21.068;2023-11-21T02:24:27;4.50;99.90
5061;DHT22;2549;52.128;21.068;2023-11-21T02:26:54;4.50;99.90
5061;DHT22;2549;52.128;21.068;2023-11-21T02:29:21;4.60;99.90
5061;DHT22;2549;52.128;21.068;2023-11-21T02:31:51;4.50;99.90
5061;DHT22;2549;52.128;21.068;2023-11-21T02:34:19;4.50;99.90
5061;DHT22;2549;52.128;21.068;2023-11-21T02:36:46;4.60;99.90
5061;DHT22;2549;52.128;21.068;2023-11-21T02:39:16;4.50;99.90
5061;DHT22;2549;52.128;21.068;2023-11-21T02:41:44;4.50;99.90
5061;DHT22;2549;52.128;21.068;2023-11-21T02:44:11;4.40;99.90
5061;DHT22;2549;52.128;21.068;2023-11-21T02:46:38;4.40;99.90
5061;DHT22;2549;52.128;21.068;2023-11-21T02:49:06;4.30;99.90
5061;DHT22;2549;52.128;21.068;2023-11-21T02:51:33;4.30;99.90
5061;DHT22;2549;52.128;21.068;2023-11-21T02:54:00;4.30;99.90
5061;DHT22;2549;52.128;21.068;2023-11-21T02:56:29;4.20;99.90
5061;DHT22;2549;52.128;21.068;2023-11-21T02:58:56;4.20;99.90
5061;DHT22;2549;52.128;21.068;2023-11-21T03:01:23;4.20;99.90
5061;DHT22;2549;52.128;21.068;2023-11-21T03:03:51;4.10;99.90
5061;DHT22;2549;52.128;21.068;2023-11-21T03:06:19;4.10;99.90
5061;DHT22;2549;52.128;21.068;2023-11-21T03:08:46;4.10;99.90
5061;DHT22;2549;52.128;21.068;2023-11-21T03:11:13;4.10;99.90
5061;DHT22;2549;52.128;21.068;2023-11-21T03:13:41;4.10;99.90
5061;DHT22;2549;52.128;21.068;2023-11-21T03:16:09;4.10;99.90
5061;DHT22;2549;52.128;21.068;2023-11-21T03:18:40;4.10;99.90
5061;DHT22;2549;52.128;21.068;2023-11-21T03:21:08;4.10;99.90
5061;DHT22;2549;52.128;21.068;2023-11-21T03:23:37;4.00;99.90
5061;DHT22;2549;52.128;21.068;2023-11-21T03:26:04;4.10;99.90
5061;DHT22;2549;52.128;21.068;2023-11-21T03:28:32;4.00;99.90
5061;DHT22;2549;52.128;21.068;2023-11-21T03:30:59;4.00;99.90
5061;DHT22;2549;52.128;21.068;2023-11-21T03:33:26;4.10;99.90
5061;DHT22;2549;52.128;21.068;2023-11-21T03:35:53;4.10;99.90
5061;DHT22;2549;52.128;21.068;2023-11-21T03:38:20;4.00;99.90
5061;DHT22;2549;52.128;21.068;2023-11-21T03:40:47;4.10;99.90
5061;DHT22;2549;52.128;21.068;2023-11-21T03:43:14;4.10;99.90
5061;DHT22;2549;52.128;21.068;2023-11-21T03:45:41;4.10;99.90
5061;DHT22;2549;52.128;21.068;2023-11-21T03:48:08;4.10;99.90
5061;DHT22;2549;52.128;21.068;2023-11-21T03:50:35;4.10;99.90
5061;DHT22;2549;52.128;21.068;2023-11-21T03:53:02;4.10;99.90
5061;DHT22;2549;52.128;21.068;2023-11-21T03:55:30;4.00;99.90
5061;DHT22;2549;52.128;21.068;2023-11-21T03:57:58;4.00;99.90
5061;DHT22;2549;52.128;21.068;2023-11-21T04:00:25;4.00;99.90
5061;DHT22;2549;52.128;21.068;2023-11-21T04:02:55;4.00;99.90
5061;DHT22;2549;52.128;21.068;2023-11-21T04:05:23;3.90;99.90
5061;DHT22;2549;52.128;21.068;2023-11-21T04:07:50;3.90;99.90
5061;DHT22;2549;52.128;21.068;2023-11-21T04:10:18;3.90;99.90
5061;DHT22;2549;52.128;21.068;2023-11-21T04:12:45;3.90;99.90
5061;DHT22;2549;52.128;21.068;2023-11-21T04:15:12;3.80;99.90
5061;DHT22;2549;52.128;21.068;2023-11-21T04:17:41;3.80;99.90
5061;DHT22;2549;52.128;21.068;2023-11-21T04:20:09;3.80;99.90
5061;DHT22;2549;52.128;21.068;2023-11-21T04:22:40;3.80;99.90
5061;DHT22;2549;52.128;21.068;2023-11-21T04:25:11;3.80;99.90
5061;DHT22;2549;52.128;21.068;2023-11-21T04:27:40;3.80;99.90
5061;DHT22;2549;52.128;21.068;2023-11-21T04:30:07;3.80;99.90
5061;DHT22;2549;52.128;21.068;2023-11-21T04:32:36;3.90;99.90
5061;DHT22;2549;52.128;21.068;2023-11-21T04:35:03;3.90;99.90
5061;DHT22;2549;52.128;21.068;2023-11-21T04:37:30;3.90;99.90
5061;DHT22;2549;52.128;21.068;2023-11-21T04:39:57;3.80;99.90
5061;DHT22;2549;52.128;21.068;2023-11-21T04:42:24;3.80;99.90
5061;DHT22;2549;52.128;21.068;2023-11-21T04:44:51;3.80;99.90
5061;DHT22;2549;52.128;21.068;2023-11-21T04:47:19;3.80;99.90
5061;DHT22;2549;52.128;21.068;2023-11-21T04:49:46;3.80;99.90
5061;DHT22;2549;52.128;21.068;2023-11-21T04:52:16;3.80;99.90
5061;DHT22;2549;52.128;21.068;2023-11-21T04:54:44;3.80;99.90
5061;DHT22;2549;52.128;21.068;2023-11-21T04:57:11;3.70;99.90
5061;DHT22;2549;52.128;21.068;2023-11-21T04:59:38;3.60;99.90
5061;DHT22;2549;52.128;21.068;2023-11-21T05:02:05;3.60;99.90
5061;DHT22;2549;52.128;21.068;2023-11-21T05:04:32;3.60;99.90
5061;DHT22;2549;52.128;21.068;2023-11-21T05:06:59;3.60;99.90
5061;DHT22;2549;52.128;21.068;2023-11-21T05:09:27;3.60;99.90
5061;DHT22;2549;52.128;21.068;2023-11-21T05:11:54;3.60;99.90
5061;DHT22;2549;52.128;21.068;2023-11-21T05:14:21;3.70;99.90
5061;DHT22;2549;52.128;21.068;2023-11-21T05:16:48;3.60;99.90
5061;DHT22;2549;52.128;21.068;2023-11-21T05:19:18;3.70;99.90
5061;DHT22;2549;52.128;21.068;2023-11-21T05:21:45;3.70;99.90
5061;DHT22;2549;52.128;21.068;2023-11-21T05:24:14;3.60;99.90
5061;DHT22;2549;52.128;21.068;2023-11-21T05:26:40;3.60;99.90
5061;DHT22;2549;52.128;21.068;2023-11-21T05:29:07;3.60;99.90
5061;DHT22;2549;52.128;21.068;2023-11-21T05:31:35;3.60;99.90
5061;DHT22;2549;52.128;21.068;2023-11-21T05:34:03;3.60;99.90
5061;DHT22;2549;52.128;21.068;2023-11-21T05:36:31;3.60;99.90
5061;DHT22;2549;52.128;21.068;2023-11-21T05:38:59;3.60;99.90
5061;DHT22;2549;52.128;21.068;2023-11-21T05:41:26;3.60;99.90
5061;DHT22;2549;52.128;21.068;2023-11-21T05:43:53;3.60;99.90
5061;DHT22;2549;52.128;21.068;2023-11-21T05:46:20;3.60;99.90
5061;DHT22;2549;52.128;21.068;2023-11-21T05:48:48;3.50;99.90
5061;DHT22;2549;52.128;21.068;2023-11-21T05:51:15;3.60;99.90
5061;DHT22;2549;52.128;21.068;2023-11-21T05:53:42;3.60;99.90
5061;DHT22;2549;52.128;21.068;2023-11-21T05:56:08;3.60;99.90
5061;DHT22;2549;52.128;21.068;2023-11-21T05:58:36;3.60;99.90
5061;DHT22;2549;52.128;21.068;2023-11-21T06:01:05;3.50;99.90
5061;DHT22;2549;52.128;21.068;2023-11-21T06:03:39;3.50;99.90
5061;DHT22;2549;52.128;21.068;2023-11-21T06:06:06;3.40;99.90
5061;DHT22;2549;52.128;21.068;2023-11-21T06:08:33;3.50;99.90
5061;DHT22;2549;52.128;21.068;2023-11-21T06:11:00;3.40;99.90
5061;DHT22;2549;52.128;21.068;2023-11-21T06:13:27;3.40;99.90
5061;DHT22;2549;52.128;21.068;2023-11-21T06:15:55;3.40;99.90
5061;DHT22;2549;52.128;21.068;2023-11-21T06:18:22;3.50;99.90
5061;DHT22;2549;52.128;21.068;2023-11-21T06:20:49;3.50;99.90
5061;DHT22;2549;52.128;21.068;2023-11-21T06:23:16;3.50;99.90
5061;DHT22;2549;52.128;21.068;2023-11-21T06:25:43;3.60;99.90
5061;DHT22;2549;52.128;21.068;2023-11-21T06:28:11;3.60;99.90
5061;DHT22;2549;52.128;21.068;2023-11-21T06:30:38;3.60;99.90
5061;DHT22;2549;52.128;21.068;2023-11-21T06:33:04;3.60;99.90
5061;DHT22;2549;52.128;21.068;2023-11-21T06:35:33;3.60;99.90
5061;DHT22;2549;52.128;21.068;2023-11-21T06:38:01;3.50;99.90
5061;DHT22;2549;52.128;21.068;2023-11-21T06:40:30;3.60;99.90
5061;DHT22;2549;52.128;21.068;2023-11-21T06:42:57;3.60;99.90
5061;DHT22;2549;52.128;21.068;2023-11-21T06:45:25;3.50;99.90
5061;DHT22;2549;52.128;21.068;2023-11-21T06:47:52;3.50;99.90
5061;DHT22;2549;52.128;21.068;2023-11-21T06:50:20;3.50;99.90
5061;DHT22;2549;52.128;21.068;2023-11-21T06:52:47;3.60;99.90
5061;DHT22;2549;52.128;21.068;2023-11-21T06:55:15;3.60;99.90
5061;DHT22;2549;52.128;21.068;2023-11-21T06:57:43;3.60;99.90
5061;DHT22;2549;52.128;21.068;2023-11-21T07:00:12;3.60;99.90
5061;DHT22;2549;52.128;21.068;2023-11-21T07:02:40;3.50;99.90
5061;DHT22;2549;52.128;21.068;2023-11-21T07:05:07;3.50;99.90
5061;DHT22;2549;52.128;21.068;2023-11-21T07:07:34;3.60;99.90
5061;DHT22;2549;52.128;21.068;2023-11-21T07:10:03;3.50;99.90
5061;DHT22;2549;52.128;21.068;2023-11-21T07:12:30;3.60;99.90
5061;DHT22;2549;52.128;21.068;2023-11-21T07:14:58;3.60;99.90
5061;DHT22;2549;52.128;21.068;2023-11-21T07:17:25;3.60;99.90
5061;DHT22;2549;52.128;21.068;2023-11-21T07:19:52;3.70;99.90
5061;DHT22;2549;52.128;21.068;2023-11-21T07:22:19;3.50;99.90
5061;DHT22;2549;52.128;21.068;2023-11-21T07:24:51;3.50;99.90
5061;DHT22;2549;52.128;21.068;2023-11-21T07:27:18;3.50;99.90
5061;DHT22;2549;52.128;21.068;2023-11-21T07:29:45;3.60;99.90
5061;DHT22;2549;52.128;21.068;2023-11-21T07:32:12;3.60;99.90
5061;DHT22;2549;52.128;21.068;2023-11-21T07:34:41;3.60;99.90
5061;DHT22;2549;52.128;21.068;2023-11-21T07:37:10;3.50;99.90
5061;DHT22;2549;52.128;21.068;2023-11-21T07:39:37;3.40;99.90
5061;DHT22;2549;52.128;21.068;2023-11-21T07:42:08;3.50;99.90
5061;DHT22;2549;52.128;21.068;2023-11-21T07:44:35;3.50;99.90
5061;DHT22;2549;52.128;21.068;2023-11-21T07:47:02;3.50;99.90
5061;DHT22;2549;52.128;21.068;2023-11-21T07:49:31;3.50;99.90
5061;DHT22;2549;52.128;21.068;2023-11-21T07:51:58;3.60;99.90
5061;DHT22;2549;52.128;21.068;2023-11-21T07:54:25;3.60;99.90
5061;DHT22;2549;52.128;21.068;2023-11-21T07:56:52;3.60;99.90
5061;DHT22;2549;52.128;21.068;2023-11-21T07:59:19;3.50;99.90
5061;DHT22;2549;52.128;21.068;2023-11-21T08:01:45;3.50;99.90
5061;DHT22;2549;52.128;21.068;2023-11-21T08:04:14;3.60;99.90
5061;DHT22;2549;52.128;21.068;2023-11-21T08:06:41;3.60;99.90
5061;DHT22;2549;52.128;21.068;2023-11-21T08:09:08;3.60;99.90
5061;DHT22;2549;52.128;21.068;2023-11-21T08:11:35;3.60;99.90
5061;DHT22;2549;52.128;21.068;2023-11-21T08:14:02;3.60;99.90
5061;DHT22;2549;52.128;21.068;2023-11-21T08:16:29;3.50;99.90
5061;DHT22;2549;52.128;21.068;2023-11-21T08:18:56;3.50;99.90
5061;DHT22;2549;52.128;21.068;2023-11-21T08:21:24;3.50;99.90
5061;DHT22;2549;52.128;21.068;2023-11-21T08:23:51;3.60;99.90
5061;DHT22;2549;52.128;21.068;2023-11-21T08:26:22;3.50;99.90
5061;DHT22;2549;52.128;21.068;2023-11-21T08:28:50;3.60;99.90
5061;DHT22;2549;52.128;21.068;2023-11-21T08:31:28;3.70;99.90
5061;DHT22;2549;52.128;21.068;2023-11-21T08:33:56;3.70;99.90
5061;DHT22;2549;52.128;21.068;2023-11-21T08:36:23;3.60;99.90
5061;DHT22;2549;52.128;21.068;2023-11-21T08:38:53;3.60;99.90
5061;DHT22;2549;52.128;21.068;2023-11-21T08:41:20;3.50;99.90
5061;DHT22;2549;52.128;21.068;2023-11-21T08:43:50;3.50;99.90
5061;DHT22;2549;52.128;21.068;2023-11-21T08:46:18;3.60;99.90
5061;DHT22;2549;52.128;21.068;2023-11-21T08:48:46;3.50;99.90
5061;DHT22;2549;52.128;21.068;2023-11-21T08:51:13;3.60;99.90
5061;DHT22;2549;52.128;21.068;2023-11-21T08:53:41;3.50;99.90
5061;DHT22;2549;52.128;21.068;2023-11-21T08:56:15;3.60;99.90
5061;DHT22;2549;52.128;21.068;2023-11-21T08:58:42;3.60;99.90
5061;DHT22;2549;52.128;21.068;2023-11-21T09:01:09;3.50;99.90
5061;DHT22;2549;52.128;21.068;2023-11-21T09:03:40;3.60;99.90
5061;DHT22;2549;52.128;21.068;2023-11-21T09:06:07;3.60;99.90
5061;DHT22;2549;52.128;21.068;2023-11-21T09:08:36;3.70;99.90
5061;DHT22;2549;52.128;21.068;2023-11-21T09:11:04;3.50;99.90
5061;DHT22;2549;52.128;21.068;2023-11-21T09:13:33;3.50;99.90
5061;DHT22;2549;52.128;21.068;2023-11-21T09:16:00;3.70;99.90
5061;DHT22;2549;52.128;21.068;2023-11-21T09:18:27;3.70;99.90
5061;DHT22;2549;52.128;21.068;2023-11-21T09:20:54;3.70;99.90
5061;DHT22;2549;52.128;21.068;2023-11-21T09:23:21;3.80;99.90
5061;DHT22;2549;52.128;21.068;2023-11-21T09:25:48;3.60;99.90
5061;DHT22;2549;52.128;21.068;2023-11-21T09:28:17;3.70;99.90
5061;DHT22;2549;52.128;21.068;2023-11-21T09:30:44;3.70;99.90
5061;DHT22;2549;52.128;21.068;2023-11-21T09:33:11;3.70;99.90
5061;DHT22;2549;52.128;21.068;2023-11-21T09:35:39;3.80;99.90
5061;DHT22;2549;52.128;21.068;2023-11-21T09:38:06;3.70;99.90
5061;DHT22;2549;52.128;21.068;2023-11-21T09:40:38;3.70;99.90
5061;DHT22;2549;52.128;21.068;2023-11-21T09:43:18;3.70;99.90
5061;DHT22;2549;52.128;21.068;2023-11-21T09:45:59;3.80;99.90
5061;DHT22;2549;52.128;21.068;2023-11-21T09:48:26;3.70;99.90
5061;DHT22;2549;52.128;21.068;2023-11-21T09:50:54;3.80;99.90
5061;DHT22;2549;52.128;21.068;2023-11-21T09:53:21;3.70;99.90
5061;DHT22;2549;52.128;21.068;2023-11-21T09:55:52;3.70;99.90
5061;DHT22;2549;52.128;21.068;2023-11-21T09:58:21;3.70;99.90
5061;DHT22;2549;52.128;21.068;2023-11-21T10:00:57;3.80;99.90
5061;DHT22;2549;52.128;21.068;2023-11-21T10:03:26;3.80;99.90
5061;DHT22;2549;52.128;21.068;2023-11-21T10:05:56;3.80;99.90
5061;DHT22;2549;52.128;21.068;2023-11-21T10:08:24;3.80;99.90
5061;DHT22;2549;52.128;21.068;2023-11-21T10:11:12;3.80;99.90
5061;DHT22;2549;52.128;21.068;2023-11-21T10:13:41;3.90;99.90
5061;DHT22;2549;52.128;21.068;2023-11-21T10:16:13;4.00;99.90
5061;DHT22;2549;52.128;21.068;2023-11-21T10:18:42;3.90;99.90
5061;DHT22;2549;52.128;21.068;2023-11-21T10:21:11;4.00;99.90
5061;DHT22;2549;52.128;21.068;2023-11-21T10:23:38;3.90;99.90
5061;DHT22;2549;52.128;21.068;2023-11-21T10:26:06;4.00;99.90
5061;DHT22;2549;52.128;21.068;2023-11-21T10:29:00;4.10;99.90
5061;DHT22;2549;52.128;21.068;2023-11-21T10:31:32;4.10;99.90
5061;DHT22;2549;52.128;21.068;2023-11-21T10:34:19;4.00;99.90
5061;DHT22;2549;52.128;21.068;2023-11-21T10:36:47;3.90;99.90
5061;DHT22;2549;52.128;21.068;2023-11-21T10:39:19;3.90;99.90
5061;DHT22;2549;52.128;21.068;2023-11-21T10:41:48;3.90;99.90
5061;DHT22;2549;52.128;21.068;2023-11-21T10:44:16;3.90;99.90
5061;DHT22;2549;52.128;21.068;2023-11-21T10:46:49;3.90;99.90
5061;DHT22;2549;52.128;21.068;2023-11-21T10:49:18;4.00;99.90
5061;DHT22;2549;52.128;21.068;2023-11-21T10:51:46;4.00;99.90
5061;DHT22;2549;52.128;21.068;2023-11-21T10:54:24;4.00;99.90
5061;DHT22;2549;52.128;21.068;2023-11-21T10:57:00;4.10;99.90
5061;DHT22;2549;52.128;21.068;2023-11-21T10:59:31;4.00;99.90
5061;DHT22;2549;52.128;21.068;2023-11-21T11:02:01;4.10;99.90
5061;DHT22;2549;52.128;21.068;2023-11-21T11:04:35;4.00;99.90
5061;DHT22;2549;52.128;21.068;2023-11-21T11:07:05;4.10;99.90
5061;DHT22;2549;52.128;21.068;2023-11-21T11:09:39;4.10;99.90
5061;DHT22;2549;52.128;21.068;2023-11-21T11:12:06;4.10;99.90
5061;DHT22;2549;52.128;21.068;2023-11-21T11:14:36;4.20;99.90
5061;DHT22;2549;52.128;21.068;2023-11-21T11:17:08;4.10;99.90
5061;DHT22;2549;52.128;21.068;2023-11-21T11:19:36;4.10;99.90
5061;DHT22;2549;52.128;21.068;2023-11-21T11:22:33;4.00;99.90
5061;DHT22;2549;52.128;21.068;2023-11-21T11:28:07;3.80;99.90
5061;DHT22;2549;52.128;21.068;2023-11-21T11:30:47;3.70;99.90
5061;DHT22;2549;52.128;21.068;2023-11-21T11:36:32;3.70;99.90
5061;DHT22;2549;52.128;21.068;2023-11-21T11:39:01;3.80;99.90
5061;DHT22;2549;52.128;21.068;2023-11-21T11:41:31;3.80;99.90
5061;DHT22;2549;52.128;21.068;2023-11-21T11:44:01;3.90;99.90
5061;DHT22;2549;52.128;21.068;2023-11-21T11:46:43;4.00;99.90
5061;DHT22;2549;52.128;21.068;2023-11-21T11:49:29;3.90;99.90
5061;DHT22;2549;52.128;21.068;2023-11-21T11:52:33;3.90;99.90
5061;DHT22;2549;52.128;21.068;2023-11-21T11:55:04;3.90;99.90
5061;DHT22;2549;52.128;21.068;2023-11-21T11:57:34;4.00;99.90
5061;DHT22;2549;52.128;21.068;2023-11-21T12:02:39;4.00;99.90
5061;DHT22;2549;52.128;21.068;2023-11-21T12:05:13;3.90;99.90
5061;DHT22;2549;52.128;21.068;2023-11-21T12:07:43;3.90;99.90
5061;DHT22;2549;52.128;21.068;2023-11-21T12:10:17;3.90;99.90
5061;DHT22;2549;52.128;21.068;2023-11-21T12:12:49;3.90;99.90
5061;DHT22;2549;52.128;21.068;2023-11-21T12:15:16;3.80;99.90
5061;DHT22;2549;52.128;21.068;2023-11-21T12:17:44;3.90;99.90
5061;DHT22;2549;52.128;21.068;2023-11-21T12:20:13;3.80;99.90
5061;DHT22;2549;52.128;21.068;2023-11-21T12:22:54;3.80;99.90
5061;DHT22;2549;52.128;21.068;2023-11-21T12:25:26;3.70;99.90
5061;DHT22;2549;52.128;21.068;2023-11-21T12:28:01;3.70;99.90
5061;DHT22;2549;52.128;21.068;2023-11-21T12:30:31;3.70;99.90
5061;DHT22;2549;52.128;21.068;2023-11-21T12:33:02;3.70;99.90
5061;DHT22;2549;52.128;21.068;2023-11-21T12:35:33;3.80;99.90
5061;DHT22;2549;52.128;21.068;2023-11-21T12:38:04;3.80;99.90
5061;DHT22;2549;52.128;21.068;2023-11-21T12:40:39;3.60;99.90
5061;DHT22;2549;52.128;21.068;2023-11-21T12:43:07;3.60;99.90
5061;DHT22;2549;52.128;21.068;2023-11-21T12:45:35;3.70;99.90
5061;DHT22;2549;52.128;21.068;2023-11-21T12:48:04;3.60;99.90
5061;DHT22;2549;52.128;21.068;2023-11-21T12:50:37;3.60;99.90
5061;DHT22;2549;52.128;21.068;2023-11-21T12:53:09;3.60;99.90
5061;DHT22;2549;52.128;21.068;2023-11-21T12:55:40;3.60;99.90
5061;DHT22;2549;52.128;21.068;2023-11-21T12:58:10;3.60;99.90
5061;DHT22;2549;52.128;21.068;2023-11-21T13:00:44;3.60;99.90
5061;DHT22;2549;52.128;21.068;2023-11-21T13:03:12;3.60;99.90
5061;DHT22;2549;52.128;21.068;2023-11-21T13:05:45;3.50;99.90
5061;DHT22;2549;52.128;21.068;2023-11-21T13:08:15;3.60;99.90
5061;DHT22;2549;52.128;21.068;2023-11-21T13:10:54;3.70;99.90
5061;DHT22;2549;52.128;21.068;2023-11-21T13:13:26;3.60;99.90
5061;DHT22;2549;52.128;21.068;2023-11-21T13:15:57;3.70;99.90
5061;DHT22;2549;52.128;21.068;2023-11-21T13:18:28;3.80;99.90
5061;DHT22;2549;52.128;21.068;2023-11-21T13:20:57;3.80;99.90
5061;DHT22;2549;52.128;21.068;2023-11-21T13:23:25;3.90;99.90
5061;DHT22;2549;52.128;21.068;2023-11-21T13:25:53;3.70;99.90
5061;DHT22;2549;52.128;21.068;2023-11-21T13:28:32;3.70;99.90
5061;DHT22;2549;52.128;21.068;2023-11-21T13:31:01;3.60;99.90
5061;DHT22;2549;52.128;21.068;2023-11-21T13:33:49;3.50;99.90
5061;DHT22;2549;52.128;21.068;2023-11-21T13:36:24;3.50;99.90
5061;DHT22;2549;52.128;21.068;2023-11-21T13:38:52;3.40;99.90
5061;DHT22;2549;52.128;21.068;2023-11-21T13:41:20;3.50;99.90
5061;DHT22;2549;52.128;21.068;2023-11-21T13:43:55;3.50;99.90
5061;DHT22;2549;52.128;21.068;2023-11-21T13:46:30;3.60;99.90
5061;DHT22;2549;52.128;21.068;2023-11-21T13:49:04;3.60;99.90
5061;DHT22;2549;52.128;21.068;2023-11-21T13:51:36;3.50;99.90
5061;DHT22;2549;52.128;21.068;2023-11-21T13:54:15;3.60;99.90
5061;DHT22;2549;52.128;21.068;2023-11-21T13:56:42;3.60;99.90
5061;DHT22;2549;52.128;21.068;2023-11-21T13:59:12;3.60;99.90
5061;DHT22;2549;52.128;21.068;2023-11-21T14:01:52;3.70;99.90
5061;DHT22;2549;52.128;21.068;2023-11-21T14:04:20;3.70;99.90
5061;DHT22;2549;52.128;21.068;2023-11-21T14:07:01;3.70;99.90
5061;DHT22;2549;52.128;21.068;2023-11-21T14:09:47;3.80;99.90
5061;DHT22;2549;52.128;21.068;2023-11-21T14:12:16;3.80;99.90
5061;DHT22;2549;52.128;21.068;2023-11-21T14:14:50;3.80;99.90
5061;DHT22;2549;52.128;21.068;2023-11-21T14:17:17;3.80;99.90
5061;DHT22;2549;52.128;21.068;2023-11-21T14:19:44;3.80;99.90
5061;DHT22;2549;52.128;21.068;2023-11-21T14:22:11;3.80;99.90
5061;DHT22;2549;52.128;21.068;2023-11-21T14:24:39;3.80;99.90
5061;DHT22;2549;52.128;21.068;2023-11-21T14:27:13;3.80;99.90
5061;DHT22;2549;52.128;21.068;2023-11-21T14:29:42;3.80;99.90
5061;DHT22;2549;52.128;21.068;2023-11-21T14:32:11;3.80;99.90
5061;DHT22;2549;52.128;21.068;2023-11-21T14:34:39;3.80;99.90
5061;DHT22;2549;52.128;21.068;2023-11-21T14:37:07;3.80;99.90
5061;DHT22;2549;52.128;21.068;2023-11-21T14:39:34;3.80;99.90
5061;DHT22;2549;52.128;21.068;2023-11-21T14:42:07;3.80;99.90
5061;DHT22;2549;52.128;21.068;2023-11-21T14:44:34;3.80;99.90
5061;DHT22;2549;52.128;21.068;2023-11-21T14:47:05;3.90;99.90
5061;DHT22;2549;52.128;21.068;2023-11-21T14:49:40;3.90;99.90
5061;DHT22;2549;52.128;21.068;2023-11-21T14:52:23;3.80;99.90
5061;DHT22;2549;52.128;21.068;2023-11-21T14:55:01;3.70;99.90
5061;DHT22;2549;52.128;21.068;2023-11-21T14:57:47;3.80;99.90
5061;DHT22;2549;52.128;21.068;2023-11-21T15:00:18;3.70;99.90
5061;DHT22;2549;52.128;21.068;2023-11-21T15:03:01;3.70;99.90
5061;DHT22;2549;52.128;21.068;2023-11-21T15:05:29;3.70;99.90
5061;DHT22;2549;52.128;21.068;2023-11-21T15:07:57;3.70;99.90
5061;DHT22;2549;52.128;21.068;2023-11-21T15:10:35;3.70;99.90
5061;DHT22;2549;52.128;21.068;2023-11-21T15:13:13;3.80;99.90
5061;DHT22;2549;52.128;21.068;2023-11-21T15:15:42;3.70;99.90
5061;DHT22;2549;52.128;21.068;2023-11-21T15:18:09;3.70;99.90
5061;DHT22;2549;52.128;21.068;2023-11-21T15:20:40;3.70;99.90
5061;DHT22;2549;52.128;21.068;2023-11-21T15:23:09;3.70;99.90
5061;DHT22;2549;52.128;21.068;2023-11-21T15:25:36;3.70;99.90
5061;DHT22;2549;52.128;21.068;2023-11-21T15:28:03;3.70;99.90
5061;DHT22;2549;52.128;21.068;2023-11-21T15:30:31;3.70;99.90
5061;DHT22;2549;52.128;21.068;2023-11-21T15:33:00;3.60;99.90
5061;DHT22;2549;52.128;21.068;2023-11-21T15:35:29;3.70;99.90
5061;DHT22;2549;52.128;21.068;2023-11-21T15:37:57;3.70;99.90
5061;DHT22;2549;52.128;21.068;2023-11-21T15:40:25;3.70;99.90
5061;DHT22;2549;52.128;21.068;2023-11-21T15:42:53;3.60;99.90
5061;DHT22;2549;52.128;21.068;2023-11-21T15:45:20;3.60;99.90
5061;DHT22;2549;52.128;21.068;2023-11-21T15:47:51;3.60;99.90
5061;DHT22;2549;52.128;21.068;2023-11-21T15:50:21;3.50;99.90
5061;DHT22;2549;52.128;21.068;2023-11-21T15:52:48;3.50;99.90
5061;DHT22;2549;52.128;21.068;2023-11-21T15:55:24;3.50;99.90
5061;DHT22;2549;52.128;21.068;2023-11-21T15:57:52;3.60;99.90
5061;DHT22;2549;52.128;21.068;2023-11-21T16:00:19;3.60;99.90
5061;DHT22;2549;52.128;21.068;2023-11-21T16:02:48;3.60;99.90
5061;DHT22;2549;52.128;21.068;2023-11-21T16:05:16;3.60;99.90
5061;DHT22;2549;52.128;21.068;2023-11-21T16:07:44;3.50;99.90
5061;DHT22;2549;52.128;21.068;2023-11-21T16:10:11;3.60;99.90
5061;DHT22;2549;52.128;21.068;2023-11-21T16:12:42;3.50;99.90
5061;DHT22;2549;52.128;21.068;2023-11-21T16:15:09;3.60;99.90
5061;DHT22;2549;52.128;21.068;2023-11-21T16:17:38;3.50;99.90
5061;DHT22;2549;52.128;21.068;2023-11-21T16:20:06;3.60;99.90
5061;DHT22;2549;52.128;21.068;2023-11-21T16:22:38;3.60;99.90
5061;DHT22;2549;52.128;21.068;2023-11-21T16:25:06;3.60;99.90
5061;DHT22;2549;52.128;21.068;2023-11-21T16:27:38;3.60;99.90